createdAt,value
2023-01-10T00:04:53.280Z,5.48
2023-01-10T00:09:49.646Z,5.49
2023-01-10T00:14:49.563Z,5.51
2023-01-10T00:19:49.019Z,5.54
2023-01-10T00:24:49.073Z,5.55
2023-01-10T00:29:46.581Z,5.56
2023-01-10T00:34:46.432Z,5.56
2023-01-10T00:39:45.793Z,5.56
2023-01-10T00:44:46.636Z,5.55
2023-01-10T00:49:42.925Z,5.56
2023-01-10T00:54:42.941Z,5.57
2023-01-10T00:59:10.938Z,5.57
2023-01-10T01:04:10.583Z,5.56
2023-01-10T01:09:07.851Z,5.55
2023-01-10T01:14:07.440Z,5.56
2023-01-10T01:19:06.694Z,5.54
2023-01-10T01:24:06.504Z,5.56
2023-01-10T01:29:06.179Z,5.56
2023-01-10T01:34:05.683Z,5.58
2023-01-10T01:39:05.512Z,5.59
2023-01-10T01:44:05.141Z,5.64
2023-01-10T01:49:06.527Z,5.66
2023-01-10T01:54:02.620Z,5.69
2023-01-10T01:58:48.738Z,5.68
2023-01-10T02:03:48.477Z,5.65
2023-01-10T02:08:49.176Z,5.65
2023-01-10T02:13:46.014Z,5.64
2023-01-10T02:18:45.755Z,5.64
2023-01-10T02:23:46.042Z,5.6
2023-01-10T02:28:47.585Z,5.56
2023-01-10T02:33:43.581Z,5.51
2023-01-10T02:38:43.540Z,5.47
2023-01-10T02:43:43.751Z,5.42
2023-01-10T02:48:42.707Z,5.39
2023-01-10T02:53:40.177Z,5.35
2023-01-10T02:58:39.895Z,5.34
2023-01-10T03:00:01.758Z,5.33
2023-01-10T03:05:01.359Z,5.29
2023-01-10T03:10:00.348Z,5.25
2023-01-10T03:15:00.308Z,5.22
2023-01-10T03:19:59.950Z,5.16
2023-01-10T03:24:59.786Z,5.11
2023-01-10T03:30:00.873Z,5.1
2023-01-10T03:34:57.080Z,5.09
2023-01-10T03:39:57.437Z,5.06
2023-01-10T03:44:56.591Z,5.02
2023-01-10T03:49:56.620Z,5
2023-01-10T03:54:54.422Z,4.96
2023-01-10T03:59:16.109Z,4.96
2023-01-10T04:04:15.963Z,4.96
2023-01-10T04:09:17.135Z,4.96
2023-01-10T04:14:13.427Z,4.98
2023-01-10T04:19:13.517Z,5.03
2023-01-10T04:24:12.680Z,5.17
2023-01-10T04:29:12.606Z,5.3
2023-01-10T04:34:09.978Z,5.39
2023-01-10T04:39:09.736Z,5.4
2023-01-10T04:44:09.080Z,5.39
2023-01-10T04:49:09.196Z,5.36
2023-01-10T04:54:08.322Z,5.34
2023-01-10T04:58:55.044Z,5.33
2023-01-10T05:03:55.146Z,5.33
2023-01-10T05:08:55.228Z,5.33
2023-01-10T05:13:56.127Z,5.31
2023-01-10T05:18:52.733Z,5.27
2023-01-10T05:23:52.618Z,5.27
2023-01-10T05:28:52.052Z,5.28
2023-01-10T05:33:52.200Z,5.26
2023-01-10T05:38:50.378Z,5.26
2023-01-10T05:43:50.524Z,5.27
2023-01-10T05:48:49.972Z,5.27
2023-01-10T05:53:51.370Z,5.25
2023-01-10T05:58:51.391Z,5.24
2023-01-10T06:03:47.756Z,5.24
2023-01-10T06:08:47.259Z,5.26
2023-01-10T06:13:47.289Z,5.26
2023-01-10T06:18:44.648Z,5.27
2023-01-10T06:23:44.456Z,5.26
2023-01-10T06:28:43.706Z,5.29
2023-01-10T06:33:43.455Z,5.31
2023-01-10T06:38:43.001Z,5.31
2023-01-10T06:43:42.333Z,5.34
2023-01-10T06:48:42.661Z,5.31
2023-01-10T06:53:42.022Z,5.28
2023-01-10T06:58:41.038Z,5.28
2023-01-10T07:03:40.469Z,5.26
2023-01-10T07:08:39.757Z,5.19
2023-01-10T07:13:40.399Z,5.12
2023-01-10T07:18:36.698Z,5.1
2023-01-10T07:23:36.738Z,5.12
2023-01-10T07:28:36.125Z,5.21
2023-01-10T07:33:36.033Z,5.28
2023-01-10T07:38:33.573Z,5.36
2023-01-10T07:43:33.371Z,5.37
2023-01-10T07:48:32.634Z,5.32
2023-01-10T07:53:32.629Z,5.26
2023-01-10T07:58:32.054Z,5.23
2023-01-10T07:59:52.984Z,5.23
2023-01-10T08:04:58.114Z,5.22
2023-01-10T08:09:52.688Z,5.3
2023-01-10T08:14:53.556Z,5.39
2023-01-10T08:19:50.133Z,5.45
2023-01-10T08:24:50.220Z,5.48
2023-01-10T08:29:49.646Z,5.49
2023-01-10T08:34:49.530Z,5.52
2023-01-10T08:39:47.081Z,5.55
2023-01-10T08:44:47.153Z,5.61
2023-01-10T08:49:47.076Z,5.66
2023-01-10T08:54:48.339Z,5.69
2023-01-10T08:59:10.955Z,5.72
2023-01-10T09:04:11.106Z,5.78
2023-01-10T09:09:10.285Z,5.83
2023-01-10T09:14:10.485Z,5.86
2023-01-10T09:19:07.775Z,5.89
2023-01-10T09:24:07.717Z,5.88
2023-01-10T09:29:06.829Z,5.85
2023-01-10T09:34:06.758Z,5.83
2023-01-10T09:39:06.130Z,5.82
2023-01-10T09:44:06.039Z,5.9
2023-01-10T09:49:05.915Z,5.98
2023-01-10T09:54:11.410Z,6.12
2023-01-10T09:58:53.803Z,6.21
2023-01-10T10:03:50.836Z,6.2
2023-01-10T10:08:50.387Z,6.15
2023-01-10T10:13:49.938Z,6.14
2023-01-10T10:18:49.796Z,6.15
2023-01-10T10:28:54.441Z,6.14
2023-01-10T10:33:48.831Z,6.2
2023-01-10T10:38:47.267Z,6.21
2023-01-10T10:43:44.540Z,6.29
2023-01-10T10:48:44.660Z,6.33
2023-01-10T10:53:43.799Z,6.3
2023-01-10T10:58:31.693Z,6.46
2023-01-10T11:03:31.568Z,6.49
2023-01-10T11:08:30.928Z,6.57
2023-01-10T11:13:31.582Z,6.74
2023-01-10T11:18:30.861Z,6.93
2023-01-10T11:23:32.154Z,6.95
2023-01-10T11:28:28.570Z,7.09
2023-01-10T11:33:28.791Z,7.33
2023-01-10T11:38:28.264Z,7.38
2023-01-10T11:43:28.575Z,7.59
2023-01-10T11:48:48.138Z,8.03
2023-01-10T11:53:26.543Z,8.32
2023-01-10T11:58:12.214Z,7.89
2023-01-10T12:03:12.003Z,7.51
2023-01-10T12:08:10.023Z,7.29
2023-01-10T12:13:09.949Z,7.35
2023-01-10T12:18:09.450Z,7.39
2023-01-10T12:23:09.091Z,7.56
2023-01-10T12:28:06.799Z,7.85
2023-01-10T12:33:06.909Z,7.99
2023-01-10T12:38:06.216Z,8.05
2023-01-10T12:43:05.961Z,8.39
2023-01-10T12:48:05.804Z,8.47
2023-01-10T12:53:05.546Z,8.55
2023-01-10T12:58:05.710Z,8.52
2023-01-10T12:59:36.920Z,8.49
2023-01-10T13:04:28.615Z,8.28
2023-01-10T13:09:35.304Z,8.21
2023-01-10T13:14:34.510Z,8.22
2023-01-10T13:19:34.727Z,8.29
2023-01-10T13:24:32.719Z,8.41
2023-01-10T13:29:32.383Z,8.31
2023-01-10T13:34:32.138Z,8.12
2023-01-10T13:39:31.326Z,8.02
2023-01-10T13:44:31.055Z,7.96
2023-01-10T13:49:31.489Z,8.14
2023-01-10T13:54:18.626Z,8.09
2023-01-10T13:59:10.454Z,8.05
2023-01-10T14:04:09.568Z,8.04
2023-01-10T14:09:09.388Z,7.98
2023-01-10T14:14:08.477Z,7.9
2023-01-10T14:19:08.305Z,7.79
2023-01-10T14:25:01.773Z,7.68
2023-01-10T14:29:07.769Z,7.61
2023-01-10T14:34:07.522Z,7.56
2023-01-10T14:39:07.206Z,7.5
2023-01-10T14:44:07.002Z,7.47
2023-01-10T14:49:07.750Z,7.46
2023-01-10T14:54:04.053Z,7.45
2023-01-10T14:58:49.083Z,7.43
2023-01-10T15:03:48.695Z,7.41
2023-01-10T15:08:48.109Z,7.4
2023-01-10T15:13:45.605Z,7.38
2023-01-10T15:18:45.312Z,7.34
2023-01-10T15:23:45.504Z,7.31
2023-01-10T15:28:46.406Z,7.28
2023-01-10T15:33:42.880Z,7.24
2023-01-10T15:38:42.777Z,7.18
2023-01-10T15:43:42.597Z,7.13
2023-01-10T15:48:42.154Z,7.08
2023-01-10T15:53:39.780Z,6.99
2023-01-10T15:58:39.682Z,6.95
2023-01-10T16:00:01.378Z,6.93
2023-01-10T16:05:01.250Z,6.9
2023-01-10T16:10:00.274Z,6.9
2023-01-10T16:14:59.928Z,6.87
2023-01-10T16:19:59.878Z,6.81
2023-01-10T16:24:59.654Z,6.76
2023-01-10T16:30:00.787Z,6.72
2023-01-10T16:34:57.098Z,6.69
2023-01-10T16:39:57.147Z,6.64
2023-01-10T16:44:56.644Z,6.6
2023-01-10T16:49:56.769Z,6.57
2023-01-10T16:54:53.905Z,6.58
2023-01-10T16:59:15.761Z,6.61
2023-01-10T17:04:15.444Z,6.6
2023-01-10T17:09:16.928Z,6.57
2023-01-10T17:14:12.961Z,6.53
2023-01-10T17:19:12.977Z,6.53
2023-01-10T17:24:12.521Z,6.5
2023-01-10T17:29:12.442Z,6.48
2023-01-10T17:34:09.834Z,6.47
2023-01-10T17:39:09.518Z,6.5
2023-01-10T17:44:08.725Z,6.5
2023-01-10T17:49:08.293Z,6.51
2023-01-10T17:54:07.570Z,6.5
2023-01-10T17:58:54.335Z,6.52
2023-01-10T18:03:54.673Z,6.53
2023-01-10T18:08:54.063Z,6.56
2023-01-10T18:13:55.278Z,6.6
2023-01-10T18:18:51.435Z,6.61
2023-01-10T18:23:51.636Z,6.62
2023-01-10T18:28:50.807Z,6.63
2023-01-10T18:33:50.789Z,6.65
2023-01-10T18:38:49.090Z,6.68
2023-01-10T18:43:49.127Z,6.71
2023-01-10T18:48:49.189Z,6.75
2023-01-10T18:53:50.187Z,6.79
2023-01-10T18:58:46.578Z,6.82
2023-01-10T19:03:46.629Z,6.82
2023-01-10T19:08:46.036Z,6.79
2023-01-10T19:13:45.924Z,6.84
2023-01-10T19:18:43.451Z,6.91
2023-01-10T19:23:43.464Z,7.01
2023-01-10T19:28:42.589Z,7.08
2023-01-10T19:33:42.491Z,7.15
2023-01-10T19:38:41.594Z,7.2
2023-01-10T19:43:41.781Z,7.25
2023-01-10T19:48:41.558Z,7.27
2023-01-10T19:53:41.417Z,7.28
2023-01-10T19:58:42.635Z,7.29
2023-01-10T20:03:39.024Z,7.35
2023-01-10T20:08:38.826Z,7.39
2023-01-10T20:13:38.289Z,7.38
2023-01-10T20:18:37.226Z,7.35
2023-01-10T20:23:36.910Z,7.35
2023-01-10T20:28:37.307Z,7.36
2023-01-10T20:33:36.492Z,7.35
2023-01-10T20:38:37.996Z,7.36
2023-01-10T20:43:34.069Z,7.4
2023-01-10T20:48:34.327Z,7.41
2023-01-10T20:53:33.614Z,7.39
2023-01-10T20:58:33.839Z,7.35
2023-01-10T20:59:55.393Z,7.34
2023-01-10T21:04:55.194Z,7.29
2023-01-10T21:09:54.112Z,7.23
2023-01-10T21:14:53.964Z,7.18
2023-01-10T21:19:53.054Z,7.13
2023-01-10T21:24:53.246Z,7.12
2023-01-10T21:29:52.856Z,7.15
2023-01-10T21:34:52.757Z,7.16
2023-01-10T21:39:53.880Z,7.15
2023-01-10T21:44:50.254Z,7.17
2023-01-10T21:49:50.093Z,7.16
2023-01-10T21:54:50.306Z,7.14
2023-01-10T21:59:13.922Z,7.15
2023-01-10T22:04:15.600Z,7.19
2023-01-10T22:09:13.714Z,7.24
2023-01-10T22:14:13.675Z,7.3
2023-01-10T22:19:14.802Z,7.34
2023-01-10T22:24:11.267Z,7.37
2023-01-10T22:29:11.325Z,7.43
2023-01-10T22:34:10.542Z,7.51
2023-01-10T22:39:10.534Z,7.63
2023-01-10T22:44:07.839Z,7.77
2023-01-10T22:49:07.822Z,7.91
2023-01-10T22:54:07.021Z,8.04
2023-01-10T22:58:53.936Z,8.14
2023-01-10T23:03:53.474Z,8.22
2023-01-10T23:08:53.161Z,8.32
2023-01-10T23:13:53.552Z,8.39
2023-01-10T23:18:53.800Z,8.46
2023-01-10T23:23:51.268Z,8.47
2023-01-10T23:28:50.607Z,8.51
2023-01-10T23:33:50.232Z,8.51
2023-01-10T23:38:51.836Z,8.51
2023-01-10T23:43:48.067Z,8.52
2023-01-10T23:48:48.354Z,8.53
2023-01-10T23:53:47.412Z,8.57
2023-01-10T23:58:47.613Z,8.59
